sensor_id;sensor_type;location;lat;lon;timestamp;P1;durP1;ratioP1;P2;durP2;ratioP2
62863;SDS011;48954;59.950;11.014;2023-08-06T00:00:25;12.20;;;2.30;;
62863;SDS011;48954;59.950;11.014;2023-08-06T00:03:11;9.70;;;2.70;;
62863;SDS011;48954;59.950;11.014;2023-08-06T00:05:37;8.10;;;2.20;;
62863;SDS011;48954;59.950;11.014;2023-08-06T00:08:07;16.60;;;2.80;;
62863;SDS011;48954;59.950;11.014;2023-08-06T00:10:33;15.00;;;2.90;;
62863;SDS011;48954;59.950;11.014;2023-08-06T00:12:58;7.30;;;2.50;;
62863;SDS011;48954;59.950;11.014;2023-08-06T00:15:24;7.60;;;2.40;;
62863;SDS011;48954;59.950;11.014;2023-08-06T00:17:50;12.60;;;3.00;;
62863;SDS011;48954;59.950;11.014;2023-08-06T00:20:16;5.60;;;2.40;;
62863;SDS011;48954;59.950;11.014;2023-08-06T00:22:42;6.80;;;2.50;;
62863;SDS011;48954;59.950;11.014;2023-08-06T00:25:08;10.70;;;2.80;;
62863;SDS011;48954;59.950;11.014;2023-08-06T00:27:34;4.80;;;2.00;;
62863;SDS011;48954;59.950;11.014;2023-08-06T00:29:59;6.50;;;2.50;;
62863;SDS011;48954;59.950;11.014;2023-08-06T00:32:26;5.20;;;2.60;;
62863;SDS011;48954;59.950;11.014;2023-08-06T00:34:51;6.40;;;2.50;;
62863;SDS011;48954;59.950;11.014;2023-08-06T00:37:17;12.00;;;3.40;;
62863;SDS011;48954;59.950;11.014;2023-08-06T00:39:43;7.40;;;3.10;;
62863;SDS011;48954;59.950;11.014;2023-08-06T00:42:09;8.70;;;3.10;;
62863;SDS011;48954;59.950;11.014;2023-08-06T00:44:36;17.60;;;2.90;;
62863;SDS011;48954;59.950;11.014;2023-08-06T00:47:03;13.60;;;3.00;;
62863;SDS011;48954;59.950;11.014;2023-08-06T00:49:29;16.70;;;3.10;;
62863;SDS011;48954;59.950;11.014;2023-08-06T00:51:55;21.10;;;3.50;;
62863;SDS011;48954;59.950;11.014;2023-08-06T00:54:23;10.90;;;2.70;;
62863;SDS011;48954;59.950;11.014;2023-08-06T00:56:51;14.50;;;3.10;;
62863;SDS011;48954;59.950;11.014;2023-08-06T00:59:17;28.70;;;3.50;;
62863;SDS011;48954;59.950;11.014;2023-08-06T01:01:43;14.10;;;2.90;;
62863;SDS011;48954;59.950;11.014;2023-08-06T01:04:09;10.20;;;2.60;;
62863;SDS011;48954;59.950;11.014;2023-08-06T01:09:41;22.20;;;3.30;;
62863;SDS011;48954;59.950;11.014;2023-08-06T01:12:21;17.00;;;3.00;;
62863;SDS011;48954;59.950;11.014;2023-08-06T01:17:47;12.50;;;3.40;;
62863;SDS011;48954;59.950;11.014;2023-08-06T01:20:13;21.00;;;3.40;;
62863;SDS011;48954;59.950;11.014;2023-08-06T01:22:39;15.00;;;3.30;;
62863;SDS011;48954;59.950;11.014;2023-08-06T01:25:05;16.20;;;2.80;;
62863;SDS011;48954;59.950;11.014;2023-08-06T01:27:33;12.40;;;3.30;;
62863;SDS011;48954;59.950;11.014;2023-08-06T01:30:12;13.50;;;3.70;;
62863;SDS011;48954;59.950;11.014;2023-08-06T01:32:42;8.60;;;2.90;;
62863;SDS011;48954;59.950;11.014;2023-08-06T01:35:11;16.60;;;4.70;;
62863;SDS011;48954;59.950;11.014;2023-08-06T01:37:39;31.90;;;7.30;;
62863;SDS011;48954;59.950;11.014;2023-08-06T01:40:12;31.90;;;8.00;;
62863;SDS011;48954;59.950;11.014;2023-08-06T01:42:39;27.00;;;8.20;;
62863;SDS011;48954;59.950;11.014;2023-08-06T01:45:08;28.60;;;8.90;;
62863;SDS011;48954;59.950;11.014;2023-08-06T01:47:35;42.20;;;9.50;;
62863;SDS011;48954;59.950;11.014;2023-08-06T01:50:02;44.20;;;9.50;;
62863;SDS011;48954;59.950;11.014;2023-08-06T01:52:28;31.20;;;8.20;;
62863;SDS011;48954;59.950;11.014;2023-08-06T01:54:54;36.00;;;7.60;;
62863;SDS011;48954;59.950;11.014;2023-08-06T01:57:20;38.90;;;8.80;;
62863;SDS011;48954;59.950;11.014;2023-08-06T01:59:46;62.50;;;9.30;;
62863;SDS011;48954;59.950;11.014;2023-08-06T02:02:12;46.00;;;9.20;;
62863;SDS011;48954;59.950;11.014;2023-08-06T02:04:38;44.60;;;7.80;;
62863;SDS011;48954;59.950;11.014;2023-08-06T02:07:04;47.50;;;9.50;;
62863;SDS011;48954;59.950;11.014;2023-08-06T02:09:29;41.50;;;9.00;;
62863;SDS011;48954;59.950;11.014;2023-08-06T02:12:05;45.50;;;7.90;;
62863;SDS011;48954;59.950;11.014;2023-08-06T02:14:31;14.90;;;6.30;;
62863;SDS011;48954;59.950;11.014;2023-08-06T02:16:57;32.20;;;7.20;;
62863;SDS011;48954;59.950;11.014;2023-08-06T02:19:23;62.10;;;8.90;;
62863;SDS011;48954;59.950;11.014;2023-08-06T02:21:48;56.00;;;8.30;;
62863;SDS011;48954;59.950;11.014;2023-08-06T02:24:14;36.20;;;6.90;;
62863;SDS011;48954;59.950;11.014;2023-08-06T02:26:40;27.50;;;5.80;;
62863;SDS011;48954;59.950;11.014;2023-08-06T02:29:06;36.90;;;7.30;;
62863;SDS011;48954;59.950;11.014;2023-08-06T02:31:31;65.60;;;7.20;;
62863;SDS011;48954;59.950;11.014;2023-08-06T02:33:57;42.20;;;6.70;;
62863;SDS011;48954;59.950;11.014;2023-08-06T02:36:23;14.70;;;5.70;;
62863;SDS011;48954;59.950;11.014;2023-08-06T02:38:49;18.20;;;4.90;;
62863;SDS011;48954;59.950;11.014;2023-08-06T02:41:15;32.00;;;5.70;;
62863;SDS011;48954;59.950;11.014;2023-08-06T02:43:41;30.20;;;7.60;;
62863;SDS011;48954;59.950;11.014;2023-08-06T02:46:06;18.80;;;6.50;;
62863;SDS011;48954;59.950;11.014;2023-08-06T02:48:32;14.70;;;5.40;;
62863;SDS011;48954;59.950;11.014;2023-08-06T02:50:58;11.90;;;5.80;;
62863;SDS011;48954;59.950;11.014;2023-08-06T02:53:24;12.10;;;5.30;;
62863;SDS011;48954;59.950;11.014;2023-08-06T02:55:50;10.80;;;5.10;;
62863;SDS011;48954;59.950;11.014;2023-08-06T02:58:16;11.60;;;5.50;;
62863;SDS011;48954;59.950;11.014;2023-08-06T03:00:42;11.50;;;5.60;;
62863;SDS011;48954;59.950;11.014;2023-08-06T03:03:09;8.70;;;5.20;;
62863;SDS011;48954;59.950;11.014;2023-08-06T03:05:35;10.20;;;5.40;;
62863;SDS011;48954;59.950;11.014;2023-08-06T03:08:00;8.80;;;4.60;;
62863;SDS011;48954;59.950;11.014;2023-08-06T03:10:30;8.30;;;4.30;;
62863;SDS011;48954;59.950;11.014;2023-08-06T03:12:55;9.40;;;4.20;;
62863;SDS011;48954;59.950;11.014;2023-08-06T03:15:26;11.20;;;4.50;;
62863;SDS011;48954;59.950;11.014;2023-08-06T03:17:52;9.80;;;4.90;;
62863;SDS011;48954;59.950;11.014;2023-08-06T03:20:21;7.10;;;4.00;;
62863;SDS011;48954;59.950;11.014;2023-08-06T03:22:47;9.70;;;5.00;;
62863;SDS011;48954;59.950;11.014;2023-08-06T03:25:12;9.50;;;4.90;;
62863;SDS011;48954;59.950;11.014;2023-08-06T03:27:38;8.20;;;4.30;;
62863;SDS011;48954;59.950;11.014;2023-08-06T03:30:04;7.70;;;4.70;;
62863;SDS011;48954;59.950;11.014;2023-08-06T03:32:30;8.30;;;4.70;;
62863;SDS011;48954;59.950;11.014;2023-08-06T03:34:56;7.70;;;4.50;;
62863;SDS011;48954;59.950;11.014;2023-08-06T03:37:22;10.00;;;4.70;;
62863;SDS011;48954;59.950;11.014;2023-08-06T03:39:48;9.70;;;4.40;;
62863;SDS011;48954;59.950;11.014;2023-08-06T03:42:14;11.30;;;5.00;;
62863;SDS011;48954;59.950;11.014;2023-08-06T03:44:39;10.50;;;4.70;;
62863;SDS011;48954;59.950;11.014;2023-08-06T03:47:05;6.60;;;3.90;;
62863;SDS011;48954;59.950;11.014;2023-08-06T03:49:31;8.50;;;4.10;;
62863;SDS011;48954;59.950;11.014;2023-08-06T03:51:57;8.10;;;4.00;;
62863;SDS011;48954;59.950;11.014;2023-08-06T03:54:22;8.30;;;3.90;;
62863;SDS011;48954;59.950;11.014;2023-08-06T03:56:48;6.80;;;3.60;;
62863;SDS011;48954;59.950;11.014;2023-08-06T03:59:14;10.20;;;4.30;;
62863;SDS011;48954;59.950;11.014;2023-08-06T04:01:40;7.00;;;3.50;;
62863;SDS011;48954;59.950;11.014;2023-08-06T04:04:05;7.00;;;3.60;;
62863;SDS011;48954;59.950;11.014;2023-08-06T04:06:31;7.30;;;3.90;;
62863;SDS011;48954;59.950;11.014;2023-08-06T04:08:57;8.20;;;3.90;;
62863;SDS011;48954;59.950;11.014;2023-08-06T04:11:23;15.20;;;5.60;;
62863;SDS011;48954;59.950;11.014;2023-08-06T04:13:48;8.10;;;3.60;;
62863;SDS011;48954;59.950;11.014;2023-08-06T04:16:14;6.70;;;3.50;;
62863;SDS011;48954;59.950;11.014;2023-08-06T04:18:40;6.80;;;3.40;;
62863;SDS011;48954;59.950;11.014;2023-08-06T04:21:06;7.10;;;3.70;;
62863;SDS011;48954;59.950;11.014;2023-08-06T04:23:32;6.80;;;4.00;;
62863;SDS011;48954;59.950;11.014;2023-08-06T04:25:58;6.60;;;3.50;;
62863;SDS011;48954;59.950;11.014;2023-08-06T04:28:24;7.40;;;3.80;;
62863;SDS011;48954;59.950;11.014;2023-08-06T04:30:50;6.80;;;3.30;;
62863;SDS011;48954;59.950;11.014;2023-08-06T04:33:15;5.80;;;3.40;;
62863;SDS011;48954;59.950;11.014;2023-08-06T04:35:41;6.80;;;3.60;;
62863;SDS011;48954;59.950;11.014;2023-08-06T04:38:07;5.70;;;3.50;;
62863;SDS011;48954;59.950;11.014;2023-08-06T04:40:33;7.40;;;3.00;;
62863;SDS011;48954;59.950;11.014;2023-08-06T04:43:00;6.70;;;3.40;;
62863;SDS011;48954;59.950;11.014;2023-08-06T04:45:26;7.70;;;3.00;;
62863;SDS011;48954;59.950;11.014;2023-08-06T04:47:52;7.30;;;4.10;;
62863;SDS011;48954;59.950;11.014;2023-08-06T04:50:19;9.50;;;3.70;;
62863;SDS011;48954;59.950;11.014;2023-08-06T04:52:45;7.90;;;3.60;;
62863;SDS011;48954;59.950;11.014;2023-08-06T04:55:11;8.60;;;3.50;;
62863;SDS011;48954;59.950;11.014;2023-08-06T04:57:37;7.50;;;3.90;;
62863;SDS011;48954;59.950;11.014;2023-08-06T05:00:03;9.50;;;3.60;;
62863;SDS011;48954;59.950;11.014;2023-08-06T05:02:30;6.90;;;3.70;;
62863;SDS011;48954;59.950;11.014;2023-08-06T05:04:55;5.90;;;3.60;;
62863;SDS011;48954;59.950;11.014;2023-08-06T05:07:21;6.50;;;3.40;;
62863;SDS011;48954;59.950;11.014;2023-08-06T05:09:47;7.70;;;4.20;;
62863;SDS011;48954;59.950;11.014;2023-08-06T05:12:13;7.00;;;3.60;;
62863;SDS011;48954;59.950;11.014;2023-08-06T05:14:38;9.70;;;3.80;;
62863;SDS011;48954;59.950;11.014;2023-08-06T05:17:04;7.80;;;4.20;;
62863;SDS011;48954;59.950;11.014;2023-08-06T05:19:30;8.60;;;3.70;;
62863;SDS011;48954;59.950;11.014;2023-08-06T05:21:56;6.60;;;3.60;;
62863;SDS011;48954;59.950;11.014;2023-08-06T05:24:21;7.70;;;3.80;;
62863;SDS011;48954;59.950;11.014;2023-08-06T05:26:47;8.00;;;3.40;;
62863;SDS011;48954;59.950;11.014;2023-08-06T05:29:13;9.80;;;4.30;;
62863;SDS011;48954;59.950;11.014;2023-08-06T05:31:39;7.10;;;3.70;;
62863;SDS011;48954;59.950;11.014;2023-08-06T05:34:04;7.30;;;3.60;;
62863;SDS011;48954;59.950;11.014;2023-08-06T05:36:30;7.70;;;4.20;;
62863;SDS011;48954;59.950;11.014;2023-08-06T05:38:56;8.50;;;3.80;;
62863;SDS011;48954;59.950;11.014;2023-08-06T05:41:22;8.30;;;4.10;;
62863;SDS011;48954;59.950;11.014;2023-08-06T05:43:47;8.80;;;4.20;;
62863;SDS011;48954;59.950;11.014;2023-08-06T05:46:13;8.70;;;3.90;;
62863;SDS011;48954;59.950;11.014;2023-08-06T05:48:39;7.30;;;4.30;;
62863;SDS011;48954;59.950;11.014;2023-08-06T05:51:05;8.00;;;3.60;;
62863;SDS011;48954;59.950;11.014;2023-08-06T05:53:31;7.10;;;3.80;;
62863;SDS011;48954;59.950;11.014;2023-08-06T05:55:57;7.50;;;3.50;;
62863;SDS011;48954;59.950;11.014;2023-08-06T05:58:23;6.20;;;3.20;;
62863;SDS011;48954;59.950;11.014;2023-08-06T06:00:48;6.10;;;3.30;;
62863;SDS011;48954;59.950;11.014;2023-08-06T06:03:14;8.60;;;3.60;;
62863;SDS011;48954;59.950;11.014;2023-08-06T06:05:40;8.50;;;4.40;;
62863;SDS011;48954;59.950;11.014;2023-08-06T06:08:06;9.20;;;4.60;;
62863;SDS011;48954;59.950;11.014;2023-08-06T06:10:32;10.60;;;4.40;;
62863;SDS011;48954;59.950;11.014;2023-08-06T06:12:57;9.30;;;3.90;;
62863;SDS011;48954;59.950;11.014;2023-08-06T06:15:23;6.40;;;3.60;;
62863;SDS011;48954;59.950;11.014;2023-08-06T06:17:49;8.00;;;4.20;;
62863;SDS011;48954;59.950;11.014;2023-08-06T06:20:15;8.30;;;3.80;;
62863;SDS011;48954;59.950;11.014;2023-08-06T06:22:41;8.70;;;4.50;;
62863;SDS011;48954;59.950;11.014;2023-08-06T06:25:07;8.40;;;3.80;;
62863;SDS011;48954;59.950;11.014;2023-08-06T06:27:33;6.90;;;3.70;;
62863;SDS011;48954;59.950;11.014;2023-08-06T06:29:58;8.30;;;4.30;;
62863;SDS011;48954;59.950;11.014;2023-08-06T06:32:25;8.30;;;4.20;;
62863;SDS011;48954;59.950;11.014;2023-08-06T06:34:50;6.80;;;4.00;;
62863;SDS011;48954;59.950;11.014;2023-08-06T06:37:16;9.20;;;3.90;;
62863;SDS011;48954;59.950;11.014;2023-08-06T06:39:42;10.30;;;4.10;;
62863;SDS011;48954;59.950;11.014;2023-08-06T06:42:08;9.10;;;3.50;;
62863;SDS011;48954;59.950;11.014;2023-08-06T06:44:34;8.90;;;3.60;;
62863;SDS011;48954;59.950;11.014;2023-08-06T06:47:00;9.90;;;4.20;;
62863;SDS011;48954;59.950;11.014;2023-08-06T06:49:26;10.20;;;3.80;;
62863;SDS011;48954;59.950;11.014;2023-08-06T06:51:51;8.30;;;3.40;;
62863;SDS011;48954;59.950;11.014;2023-08-06T06:54:17;10.00;;;3.90;;
62863;SDS011;48954;59.950;11.014;2023-08-06T06:56:43;8.50;;;3.90;;
62863;SDS011;48954;59.950;11.014;2023-08-06T06:59:09;8.70;;;3.30;;
62863;SDS011;48954;59.950;11.014;2023-08-06T07:01:35;10.00;;;3.90;;
62863;SDS011;48954;59.950;11.014;2023-08-06T07:04:01;6.40;;;3.70;;
62863;SDS011;48954;59.950;11.014;2023-08-06T07:06:27;7.70;;;3.80;;
62863;SDS011;48954;59.950;11.014;2023-08-06T07:08:53;12.70;;;4.80;;
62863;SDS011;48954;59.950;11.014;2023-08-06T07:11:19;7.40;;;4.10;;
62863;SDS011;48954;59.950;11.014;2023-08-06T07:13:45;7.80;;;3.90;;
62863;SDS011;48954;59.950;11.014;2023-08-06T07:16:11;8.50;;;3.60;;
62863;SDS011;48954;59.950;11.014;2023-08-06T07:18:37;8.60;;;3.60;;
62863;SDS011;48954;59.950;11.014;2023-08-06T07:21:03;12.70;;;3.90;;
62863;SDS011;48954;59.950;11.014;2023-08-06T07:23:29;7.50;;;3.90;;
62863;SDS011;48954;59.950;11.014;2023-08-06T07:25:55;12.80;;;4.80;;
62863;SDS011;48954;59.950;11.014;2023-08-06T07:28:21;10.00;;;4.40;;
62863;SDS011;48954;59.950;11.014;2023-08-06T07:30:46;10.60;;;3.60;;
62863;SDS011;48954;59.950;11.014;2023-08-06T07:33:12;12.70;;;3.40;;
62863;SDS011;48954;59.950;11.014;2023-08-06T07:35:38;9.50;;;3.70;;
62863;SDS011;48954;59.950;11.014;2023-08-06T07:38:04;6.30;;;3.10;;
62863;SDS011;48954;59.950;11.014;2023-08-06T07:40:30;8.00;;;3.40;;
62863;SDS011;48954;59.950;11.014;2023-08-06T07:42:56;8.40;;;3.00;;
62863;SDS011;48954;59.950;11.014;2023-08-06T07:45:22;8.20;;;3.50;;
62863;SDS011;48954;59.950;11.014;2023-08-06T07:47:48;8.70;;;3.40;;
62863;SDS011;48954;59.950;11.014;2023-08-06T07:50:13;9.20;;;3.10;;
62863;SDS011;48954;59.950;11.014;2023-08-06T07:52:39;7.50;;;3.10;;
62863;SDS011;48954;59.950;11.014;2023-08-06T07:55:05;6.00;;;3.10;;
62863;SDS011;48954;59.950;11.014;2023-08-06T07:57:31;5.60;;;3.10;;
62863;SDS011;48954;59.950;11.014;2023-08-06T07:59:57;6.40;;;3.30;;
62863;SDS011;48954;59.950;11.014;2023-08-06T08:02:24;7.90;;;3.20;;
62863;SDS011;48954;59.950;11.014;2023-08-06T08:04:50;6.90;;;2.80;;
62863;SDS011;48954;59.950;11.014;2023-08-06T08:07:16;9.50;;;2.80;;
62863;SDS011;48954;59.950;11.014;2023-08-06T08:09:41;10.20;;;3.80;;
62863;SDS011;48954;59.950;11.014;2023-08-06T08:12:07;8.30;;;3.40;;
62863;SDS011;48954;59.950;11.014;2023-08-06T08:14:33;6.50;;;2.80;;
62863;SDS011;48954;59.950;11.014;2023-08-06T08:16:59;5.30;;;2.70;;
62863;SDS011;48954;59.950;11.014;2023-08-06T08:19:24;5.90;;;2.50;;
62863;SDS011;48954;59.950;11.014;2023-08-06T08:21:51;6.20;;;2.70;;
62863;SDS011;48954;59.950;11.014;2023-08-06T08:24:16;4.90;;;2.80;;
62863;SDS011;48954;59.950;11.014;2023-08-06T08:26:42;8.20;;;2.90;;
62863;SDS011;48954;59.950;11.014;2023-08-06T08:29:08;5.00;;;2.90;;
62863;SDS011;48954;59.950;11.014;2023-08-06T08:31:34;7.30;;;2.80;;
62863;SDS011;48954;59.950;11.014;2023-08-06T08:34:00;6.90;;;3.00;;
62863;SDS011;48954;59.950;11.014;2023-08-06T08:36:26;5.40;;;2.20;;
62863;SDS011;48954;59.950;11.014;2023-08-06T08:38:52;7.80;;;2.70;;
62863;SDS011;48954;59.950;11.014;2023-08-06T08:41:17;6.80;;;2.30;;
62863;SDS011;48954;59.950;11.014;2023-08-06T08:43:43;4.50;;;2.20;;
62863;SDS011;48954;59.950;11.014;2023-08-06T08:46:09;3.30;;;2.30;;
62863;SDS011;48954;59.950;11.014;2023-08-06T08:48:37;7.80;;;2.30;;
62863;SDS011;48954;59.950;11.014;2023-08-06T08:51:03;4.20;;;2.20;;
62863;SDS011;48954;59.950;11.014;2023-08-06T08:53:31;7.70;;;2.60;;
62863;SDS011;48954;59.950;11.014;2023-08-06T08:55:58;7.00;;;2.50;;
62863;SDS011;48954;59.950;11.014;2023-08-06T08:58:24;9.10;;;2.60;;
62863;SDS011;48954;59.950;11.014;2023-08-06T09:00:50;5.80;;;2.50;;
62863;SDS011;48954;59.950;11.014;2023-08-06T09:03:17;5.30;;;2.30;;
62863;SDS011;48954;59.950;11.014;2023-08-06T09:05:44;4.60;;;2.20;;
62863;SDS011;48954;59.950;11.014;2023-08-06T09:08:14;6.80;;;2.50;;
62863;SDS011;48954;59.950;11.014;2023-08-06T09:10:43;6.40;;;2.60;;
62863;SDS011;48954;59.950;11.014;2023-08-06T09:13:09;9.30;;;2.60;;
62863;SDS011;48954;59.950;11.014;2023-08-06T09:15:35;6.20;;;2.30;;
62863;SDS011;48954;59.950;11.014;2023-08-06T09:18:00;5.90;;;2.30;;
62863;SDS011;48954;59.950;11.014;2023-08-06T09:20:35;7.30;;;2.10;;
62863;SDS011;48954;59.950;11.014;2023-08-06T09:23:06;7.60;;;2.00;;
62863;SDS011;48954;59.950;11.014;2023-08-06T09:25:37;4.20;;;1.90;;
62863;SDS011;48954;59.950;11.014;2023-08-06T09:28:04;5.30;;;1.70;;
62863;SDS011;48954;59.950;11.014;2023-08-06T09:30:31;5.40;;;1.80;;
62863;SDS011;48954;59.950;11.014;2023-08-06T09:32:57;4.50;;;1.70;;
62863;SDS011;48954;59.950;11.014;2023-08-06T09:35:23;4.70;;;1.90;;
62863;SDS011;48954;59.950;11.014;2023-08-06T09:37:49;3.60;;;1.50;;
62863;SDS011;48954;59.950;11.014;2023-08-06T09:40:25;4.70;;;1.60;;
62863;SDS011;48954;59.950;11.014;2023-08-06T09:42:51;2.50;;;1.30;;
62863;SDS011;48954;59.950;11.014;2023-08-06T09:45:16;4.60;;;1.60;;
62863;SDS011;48954;59.950;11.014;2023-08-06T09:47:43;4.40;;;1.10;;
62863;SDS011;48954;59.950;11.014;2023-08-06T09:50:18;3.70;;;1.60;;
62863;SDS011;48954;59.950;11.014;2023-08-06T09:52:46;3.70;;;1.60;;
62863;SDS011;48954;59.950;11.014;2023-08-06T09:55:13;3.10;;;1.50;;
62863;SDS011;48954;59.950;11.014;2023-08-06T09:57:40;4.50;;;1.70;;
62863;SDS011;48954;59.950;11.014;2023-08-06T10:00:07;3.30;;;1.80;;
62863;SDS011;48954;59.950;11.014;2023-08-06T10:02:37;4.20;;;1.60;;
62863;SDS011;48954;59.950;11.014;2023-08-06T10:05:03;3.30;;;1.60;;
62863;SDS011;48954;59.950;11.014;2023-08-06T10:07:31;7.20;;;1.80;;
62863;SDS011;48954;59.950;11.014;2023-08-06T10:09:58;3.60;;;1.90;;
62863;SDS011;48954;59.950;11.014;2023-08-06T10:12:24;3.80;;;1.70;;
62863;SDS011;48954;59.950;11.014;2023-08-06T10:14:52;3.30;;;1.70;;
62863;SDS011;48954;59.950;11.014;2023-08-06T10:17:21;3.50;;;1.80;;
62863;SDS011;48954;59.950;11.014;2023-08-06T10:19:49;2.70;;;1.70;;
62863;SDS011;48954;59.950;11.014;2023-08-06T10:22:17;3.80;;;1.90;;
62863;SDS011;48954;59.950;11.014;2023-08-06T10:24:50;4.10;;;1.60;;
62863;SDS011;48954;59.950;11.014;2023-08-06T10:29:54;3.90;;;1.60;;
62863;SDS011;48954;59.950;11.014;2023-08-06T10:32:19;4.40;;;1.80;;
62863;SDS011;48954;59.950;11.014;2023-08-06T10:34:55;3.80;;;1.60;;
62863;SDS011;48954;59.950;11.014;2023-08-06T10:37:22;4.00;;;1.80;;
62863;SDS011;48954;59.950;11.014;2023-08-06T10:39:50;3.60;;;1.80;;
62863;SDS011;48954;59.950;11.014;2023-08-06T10:42:20;3.10;;;1.70;;
62863;SDS011;48954;59.950;11.014;2023-08-06T10:45:10;3.90;;;1.60;;
62863;SDS011;48954;59.950;11.014;2023-08-06T10:47:38;3.60;;;1.80;;
62863;SDS011;48954;59.950;11.014;2023-08-06T10:50:05;3.60;;;2.00;;
62863;SDS011;48954;59.950;11.014;2023-08-06T10:52:33;4.20;;;1.60;;
62863;SDS011;48954;59.950;11.014;2023-08-06T10:54:59;4.90;;;1.80;;
62863;SDS011;48954;59.950;11.014;2023-08-06T10:57:25;2.80;;;1.60;;
62863;SDS011;48954;59.950;11.014;2023-08-06T10:59:52;3.90;;;1.70;;
62863;SDS011;48954;59.950;11.014;2023-08-06T11:02:18;3.20;;;1.80;;
62863;SDS011;48954;59.950;11.014;2023-08-06T11:04:44;2.90;;;1.80;;
62863;SDS011;48954;59.950;11.014;2023-08-06T11:07:13;5.40;;;1.80;;
62863;SDS011;48954;59.950;11.014;2023-08-06T11:09:40;3.80;;;1.60;;
62863;SDS011;48954;59.950;11.014;2023-08-06T11:12:11;4.00;;;1.70;;
62863;SDS011;48954;59.950;11.014;2023-08-06T11:14:37;3.60;;;1.60;;
62863;SDS011;48954;59.950;11.014;2023-08-06T11:17:03;4.00;;;1.70;;
62863;SDS011;48954;59.950;11.014;2023-08-06T11:19:30;3.90;;;1.90;;
62863;SDS011;48954;59.950;11.014;2023-08-06T11:21:56;4.20;;;1.60;;
62863;SDS011;48954;59.950;11.014;2023-08-06T11:24:26;2.50;;;1.70;;
62863;SDS011;48954;59.950;11.014;2023-08-06T11:26:53;3.80;;;1.60;;
62863;SDS011;48954;59.950;11.014;2023-08-06T11:29:19;5.20;;;1.70;;
62863;SDS011;48954;59.950;11.014;2023-08-06T11:31:46;4.50;;;1.60;;
62863;SDS011;48954;59.950;11.014;2023-08-06T11:34:13;4.80;;;1.90;;
62863;SDS011;48954;59.950;11.014;2023-08-06T11:36:40;3.20;;;1.60;;
62863;SDS011;48954;59.950;11.014;2023-08-06T11:39:07;2.60;;;1.50;;
62863;SDS011;48954;59.950;11.014;2023-08-06T11:41:33;4.00;;;1.60;;
62863;SDS011;48954;59.950;11.014;2023-08-06T11:43:59;3.40;;;1.90;;
62863;SDS011;48954;59.950;11.014;2023-08-06T11:46:25;4.50;;;1.70;;
62863;SDS011;48954;59.950;11.014;2023-08-06T11:48:52;2.90;;;1.50;;
62863;SDS011;48954;59.950;11.014;2023-08-06T11:51:18;4.20;;;1.70;;
62863;SDS011;48954;59.950;11.014;2023-08-06T11:53:49;3.20;;;1.50;;
62863;SDS011;48954;59.950;11.014;2023-08-06T11:56:16;3.10;;;1.40;;
62863;SDS011;48954;59.950;11.014;2023-08-06T11:58:46;7.70;;;2.00;;
62863;SDS011;48954;59.950;11.014;2023-08-06T12:01:13;4.30;;;2.00;;
62863;SDS011;48954;59.950;11.014;2023-08-06T12:03:58;3.50;;;2.20;;
62863;SDS011;48954;59.950;11.014;2023-08-06T12:06:27;3.10;;;1.80;;
62863;SDS011;48954;59.950;11.014;2023-08-06T12:08:54;4.20;;;1.70;;
62863;SDS011;48954;59.950;11.014;2023-08-06T12:11:20;3.90;;;1.80;;
62863;SDS011;48954;59.950;11.014;2023-08-06T12:13:51;3.00;;;1.70;;
62863;SDS011;48954;59.950;11.014;2023-08-06T12:16:17;3.90;;;1.60;;
62863;SDS011;48954;59.950;11.014;2023-08-06T12:18:43;4.30;;;2.10;;
62863;SDS011;48954;59.950;11.014;2023-08-06T12:21:09;2.70;;;1.60;;
62863;SDS011;48954;59.950;11.014;2023-08-06T12:23:37;4.60;;;2.60;;
62863;SDS011;48954;59.950;11.014;2023-08-06T12:26:03;4.30;;;2.00;;
62863;SDS011;48954;59.950;11.014;2023-08-06T12:28:29;5.60;;;2.50;;
62863;SDS011;48954;59.950;11.014;2023-08-06T12:30:55;4.40;;;2.00;;
62863;SDS011;48954;59.950;11.014;2023-08-06T12:33:37;4.30;;;1.80;;
62863;SDS011;48954;59.950;11.014;2023-08-06T12:36:04;4.40;;;2.20;;
62863;SDS011;48954;59.950;11.014;2023-08-06T12:38:31;4.70;;;2.00;;
62863;SDS011;48954;59.950;11.014;2023-08-06T12:41:06;4.10;;;2.00;;
62863;SDS011;48954;59.950;11.014;2023-08-06T12:43:40;2.60;;;1.70;;
62863;SDS011;48954;59.950;11.014;2023-08-06T12:46:07;5.60;;;2.20;;
62863;SDS011;48954;59.950;11.014;2023-08-06T12:48:34;4.20;;;1.90;;
62863;SDS011;48954;59.950;11.014;2023-08-06T12:51:00;3.90;;;1.80;;
62863;SDS011;48954;59.950;11.014;2023-08-06T12:53:41;3.70;;;1.90;;
62863;SDS011;48954;59.950;11.014;2023-08-06T12:56:08;4.20;;;2.00;;
62863;SDS011;48954;59.950;11.014;2023-08-06T12:58:36;3.70;;;1.90;;
62863;SDS011;48954;59.950;11.014;2023-08-06T13:01:02;4.90;;;2.00;;
62863;SDS011;48954;59.950;11.014;2023-08-06T13:03:32;4.20;;;2.20;;
62863;SDS011;48954;59.950;11.014;2023-08-06T13:06:00;4.10;;;2.20;;
62863;SDS011;48954;59.950;11.014;2023-08-06T13:08:27;3.80;;;2.20;;
62863;SDS011;48954;59.950;11.014;2023-08-06T13:10:55;3.70;;;2.30;;
62863;SDS011;48954;59.950;11.014;2023-08-06T13:13:21;2.80;;;1.80;;
62863;SDS011;48954;59.950;11.014;2023-08-06T13:15:47;3.30;;;2.30;;
62863;SDS011;48954;59.950;11.014;2023-08-06T13:18:13;2.90;;;1.90;;
62863;SDS011;48954;59.950;11.014;2023-08-06T13:20:39;3.40;;;2.20;;
62863;SDS011;48954;59.950;11.014;2023-08-06T13:23:05;3.60;;;1.90;;
62863;SDS011;48954;59.950;11.014;2023-08-06T13:25:39;3.40;;;2.10;;
62863;SDS011;48954;59.950;11.014;2023-08-06T13:28:06;3.80;;;2.10;;
62863;SDS011;48954;59.950;11.014;2023-08-06T13:30:33;5.80;;;2.10;;
62863;SDS011;48954;59.950;11.014;2023-08-06T13:32:59;3.10;;;2.30;;
62863;SDS011;48954;59.950;11.014;2023-08-06T13:35:25;3.70;;;2.20;;
62863;SDS011;48954;59.950;11.014;2023-08-06T13:37:51;5.50;;;2.00;;
62863;SDS011;48954;59.950;11.014;2023-08-06T13:40:17;2.90;;;1.90;;
62863;SDS011;48954;59.950;11.014;2023-08-06T13:42:43;4.80;;;2.30;;
62863;SDS011;48954;59.950;11.014;2023-08-06T13:45:11;3.70;;;2.10;;
62863;SDS011;48954;59.950;11.014;2023-08-06T13:47:39;3.80;;;2.30;;
62863;SDS011;48954;59.950;11.014;2023-08-06T13:50:05;3.10;;;2.50;;
62863;SDS011;48954;59.950;11.014;2023-08-06T13:52:33;3.00;;;2.10;;
62863;SDS011;48954;59.950;11.014;2023-08-06T13:55:01;3.40;;;2.10;;
62863;SDS011;48954;59.950;11.014;2023-08-06T13:57:30;4.10;;;2.00;;
62863;SDS011;48954;59.950;11.014;2023-08-06T13:59:55;4.70;;;2.30;;
62863;SDS011;48954;59.950;11.014;2023-08-06T14:02:22;3.90;;;2.40;;
62863;SDS011;48954;59.950;11.014;2023-08-06T14:04:48;3.90;;;2.40;;
62863;SDS011;48954;59.950;11.014;2023-08-06T14:07:15;4.20;;;2.30;;
62863;SDS011;48954;59.950;11.014;2023-08-06T14:09:41;3.70;;;1.90;;
62863;SDS011;48954;59.950;11.014;2023-08-06T14:12:07;4.90;;;2.60;;
62863;SDS011;48954;59.950;11.014;2023-08-06T14:14:32;3.80;;;2.30;;
62863;SDS011;48954;59.950;11.014;2023-08-06T14:16:59;4.10;;;2.40;;
62863;SDS011;48954;59.950;11.014;2023-08-06T14:19:25;4.60;;;2.70;;
62863;SDS011;48954;59.950;11.014;2023-08-06T14:21:51;4.60;;;2.60;;
62863;SDS011;48954;59.950;11.014;2023-08-06T14:24:17;3.20;;;2.50;;
62863;SDS011;48954;59.950;11.014;2023-08-06T14:26:43;4.20;;;2.20;;
62863;SDS011;48954;59.950;11.014;2023-08-06T14:29:08;4.70;;;2.60;;
62863;SDS011;48954;59.950;11.014;2023-08-06T14:31:35;5.10;;;2.40;;
62863;SDS011;48954;59.950;11.014;2023-08-06T14:34:02;3.10;;;2.20;;
62863;SDS011;48954;59.950;11.014;2023-08-06T14:36:28;3.40;;;2.60;;